sensor_id;sensor_type;location;lat;lon;timestamp;pressure;altitude;pressure_sealevel;temperature;humidity
59240;BME280;45010;53.640;10.578;2023-03-05T00:02:27;100915.03;;;25.31;30.16
59240;BME280;45010;53.640;10.578;2023-03-05T00:05:27;100909.47;;;25.32;30.39
59240;BME280;45010;53.640;10.578;2023-03-05T00:08:29;100888.56;;;25.29;30.23
59240;BME280;45010;53.640;10.578;2023-03-05T00:11:30;100899.38;;;25.34;30.25
59240;BME280;45010;53.640;10.578;2023-03-05T00:14:32;100899.16;;;25.36;30.46
59240;BME280;45010;53.640;10.578;2023-03-05T00:17:32;100891.94;;;25.36;30.31
59240;BME280;45010;53.640;10.578;2023-03-05T00:20:33;100886.03;;;25.34;30.03
59240;BME280;45010;53.640;10.578;2023-03-05T00:23:34;100879.63;;;25.35;30.37
59240;BME280;45010;53.640;10.578;2023-03-05T00:26:36;100872.56;;;25.29;30.26
59240;BME280;45010;53.640;10.578;2023-03-05T00:29:37;100887.63;;;25.35;30.38
59240;BME280;45010;53.640;10.578;2023-03-05T00:32:38;100883.91;;;25.36;30.31
59240;BME280;45010;53.640;10.578;2023-03-05T00:35:43;100878.59;;;25.36;30.25
59240;BME280;45010;53.640;10.578;2023-03-05T00:38:43;100880.19;;;25.37;30.25
59240;BME280;45010;53.640;10.578;2023-03-05T00:41:44;100877.44;;;25.32;30.08
59240;BME280;45010;53.640;10.578;2023-03-05T00:44:44;100873.84;;;25.38;30.12
59240;BME280;45010;53.640;10.578;2023-03-05T00:47:45;100877.31;;;25.39;30.12
59240;BME280;45010;53.640;10.578;2023-03-05T00:50:45;100871.97;;;25.39;30.18
59240;BME280;45010;53.640;10.578;2023-03-05T00:53:45;100860.94;;;25.35;30.05
59240;BME280;45010;53.640;10.578;2023-03-05T00:56:46;100862.91;;;25.40;30.08
59240;BME280;45010;53.640;10.578;2023-03-05T00:59:48;100858.38;;;25.41;30.24
59240;BME280;45010;53.640;10.578;2023-03-05T01:02:48;100860.84;;;25.42;30.20
59240;BME280;45010;53.640;10.578;2023-03-05T01:05:48;100856.50;;;25.41;30.37
59240;BME280;45010;53.640;10.578;2023-03-05T01:08:49;100855.50;;;25.42;30.28
59240;BME280;45010;53.640;10.578;2023-03-05T01:11:50;100846.66;;;25.42;30.10
59240;BME280;45010;53.640;10.578;2023-03-05T01:14:50;100856.78;;;25.39;29.84
59240;BME280;45010;53.640;10.578;2023-03-05T01:17:51;100846.53;;;25.36;29.87
59240;BME280;45010;53.640;10.578;2023-03-05T01:20:51;100841.69;;;25.33;29.97
59240;BME280;45010;53.640;10.578;2023-03-05T01:23:51;100831.00;;;25.33;29.83
59240;BME280;45010;53.640;10.578;2023-03-05T01:26:52;100822.06;;;25.28;29.86
59240;BME280;45010;53.640;10.578;2023-03-05T01:29:52;100831.22;;;25.32;29.82
59240;BME280;45010;53.640;10.578;2023-03-05T01:32:53;100819.66;;;25.26;29.89
59240;BME280;45010;53.640;10.578;2023-03-05T01:35:54;100824.50;;;25.29;29.97
59240;BME280;45010;53.640;10.578;2023-03-05T01:38:54;100821.25;;;25.27;30.15
59240;BME280;45010;53.640;10.578;2023-03-05T01:41:54;100816.16;;;25.25;30.21
59240;BME280;45010;53.640;10.578;2023-03-05T01:45:07;100814.75;;;25.23;30.08
59240;BME280;45010;53.640;10.578;2023-03-05T01:48:09;100811.53;;;25.21;30.03
59240;BME280;45010;53.640;10.578;2023-03-05T01:51:09;100812.53;;;25.20;29.99
59240;BME280;45010;53.640;10.578;2023-03-05T01:54:11;100793.19;;;25.12;30.07
59240;BME280;45010;53.640;10.578;2023-03-05T01:57:19;100783.56;;;25.00;29.96
59240;BME280;45010;53.640;10.578;2023-03-05T02:00:28;100791.00;;;25.09;30.29
59240;BME280;45010;53.640;10.578;2023-03-05T02:03:29;100795.28;;;25.10;30.00
59240;BME280;45010;53.640;10.578;2023-03-05T02:06:29;100777.88;;;24.96;30.00
59240;BME280;45010;53.640;10.578;2023-03-05T02:09:30;100788.78;;;25.06;30.00
59240;BME280;45010;53.640;10.578;2023-03-05T02:12:30;100792.50;;;25.05;29.96
59240;BME280;45010;53.640;10.578;2023-03-05T02:15:31;100763.59;;;24.90;30.00
59240;BME280;45010;53.640;10.578;2023-03-05T02:18:32;100778.34;;;24.93;30.02
59240;BME280;45010;53.640;10.578;2023-03-05T02:21:42;100773.56;;;24.95;30.01
59240;BME280;45010;53.640;10.578;2023-03-05T02:24:43;100775.78;;;24.98;30.17
59240;BME280;45010;53.640;10.578;2023-03-05T02:27:50;100777.88;;;24.96;30.02
59240;BME280;45010;53.640;10.578;2023-03-05T02:30:53;100774.63;;;24.94;30.07
59240;BME280;45010;53.640;10.578;2023-03-05T02:33:54;100746.53;;;24.79;30.19
59240;BME280;45010;53.640;10.578;2023-03-05T02:36:55;100771.38;;;24.92;30.27
59240;BME280;45010;53.640;10.578;2023-03-05T02:39:55;100761.75;;;24.91;29.99
59240;BME280;45010;53.640;10.578;2023-03-05T02:42:56;100761.16;;;24.89;30.04
59240;BME280;45010;53.640;10.578;2023-03-05T02:45:56;100758.75;;;24.87;29.95
59240;BME280;45010;53.640;10.578;2023-03-05T02:48:56;100752.03;;;24.84;30.06
59240;BME280;45010;53.640;10.578;2023-03-05T02:51:56;100742.38;;;24.83;30.24
59240;BME280;45010;53.640;10.578;2023-03-05T02:54:57;100751.41;;;24.82;30.18
59240;BME280;45010;53.640;10.578;2023-03-05T02:57:57;100744.47;;;24.81;30.20
59240;BME280;45010;53.640;10.578;2023-03-05T03:00:57;100745.50;;;24.80;30.06
59240;BME280;45010;53.640;10.578;2023-03-05T03:03:58;100739.59;;;24.78;29.99
59240;BME280;45010;53.640;10.578;2023-03-05T03:06:58;100734.47;;;24.77;30.02
59240;BME280;45010;53.640;10.578;2023-03-05T03:09:59;100730.97;;;24.76;30.01
59240;BME280;45010;53.640;10.578;2023-03-05T03:12:59;100734.69;;;24.75;30.02
59240;BME280;45010;53.640;10.578;2023-03-05T03:16:05;100728.69;;;24.68;30.08
59240;BME280;45010;53.640;10.578;2023-03-05T03:19:06;100731.47;;;24.73;30.09
59240;BME280;45010;53.640;10.578;2023-03-05T03:22:07;100728.78;;;24.73;30.16
59240;BME280;45010;53.640;10.578;2023-03-05T03:25:07;100727.19;;;24.72;30.22
59240;BME280;45010;53.640;10.578;2023-03-05T03:28:08;100723.69;;;24.71;30.08
59240;BME280;45010;53.640;10.578;2023-03-05T03:31:08;100725.78;;;24.69;30.13
59240;BME280;45010;53.640;10.578;2023-03-05T03:34:08;100724.97;;;24.69;30.01
59240;BME280;45010;53.640;10.578;2023-03-05T03:37:09;100720.69;;;24.68;30.19
59240;BME280;45010;53.640;10.578;2023-03-05T03:40:10;100704.91;;;24.66;30.23
59240;BME280;45010;53.640;10.578;2023-03-05T03:43:10;100704.91;;;24.66;30.19
59240;BME280;45010;53.640;10.578;2023-03-05T03:46:11;100702.47;;;24.65;30.21
59240;BME280;45010;53.640;10.578;2023-03-05T03:49:15;100699.78;;;24.65;30.13
59240;BME280;45010;53.640;10.578;2023-03-05T03:52:15;100699.78;;;24.65;30.27
59240;BME280;45010;53.640;10.578;2023-03-05T03:55:16;100692.72;;;24.58;30.09
59240;BME280;45010;53.640;10.578;2023-03-05T03:58:17;100693.88;;;24.63;30.19
59240;BME280;45010;53.640;10.578;2023-03-05T04:01:18;100691.22;;;24.63;30.06
59240;BME280;45010;53.640;10.578;2023-03-05T04:04:19;100692.28;;;24.62;30.07
59240;BME280;45010;53.640;10.578;2023-03-05T04:07:19;100691.44;;;24.61;30.26
59240;BME280;45010;53.640;10.578;2023-03-05T04:10:19;100689.81;;;24.60;30.22
59240;BME280;45010;53.640;10.578;2023-03-05T04:13:20;100690.66;;;24.61;30.12
59240;BME280;45010;53.640;10.578;2023-03-05T04:16:20;100685.31;;;24.61;30.00
59240;BME280;45010;53.640;10.578;2023-03-05T04:19:20;100686.13;;;24.61;30.19
59240;BME280;45010;53.640;10.578;2023-03-05T04:22:21;100676.50;;;24.60;30.41
59240;BME280;45010;53.640;10.578;2023-03-05T04:25:21;100675.09;;;24.57;30.35
59240;BME280;45010;53.640;10.578;2023-03-05T04:28:21;100682.88;;;24.59;30.28
59240;BME280;45010;53.640;10.578;2023-03-05T04:31:22;100673.03;;;24.60;30.32
59240;BME280;45010;53.640;10.578;2023-03-05T04:34:23;100678.38;;;24.60;30.22
59240;BME280;45010;53.640;10.578;2023-03-05T04:37:24;100673.03;;;24.60;30.17
59240;BME280;45010;53.640;10.578;2023-03-05T04:40:25;100659.59;;;24.54;30.29
59240;BME280;45010;53.640;10.578;2023-03-05T04:43:25;100659.09;;;24.57;30.28
59240;BME280;45010;53.640;10.578;2023-03-05T04:46:26;100656.22;;;24.59;30.24
59240;BME280;45010;53.640;10.578;2023-03-05T04:49:26;100652.72;;;24.58;30.10
59240;BME280;45010;53.640;10.578;2023-03-05T04:52:26;100658.06;;;24.58;30.10
59240;BME280;45010;53.640;10.578;2023-03-05T04:55:27;100651.72;;;24.60;30.37
59240;BME280;45010;53.640;10.578;2023-03-05T04:58:27;100650.06;;;24.58;30.40
59240;BME280;45010;53.640;10.578;2023-03-05T05:01:28;100631.41;;;24.47;30.20
59240;BME280;45010;53.640;10.578;2023-03-05T05:04:28;100659.94;;;24.58;30.28
59240;BME280;45010;53.640;10.578;2023-03-05T05:07:29;100659.94;;;24.58;30.33
59240;BME280;45010;53.640;10.578;2023-03-05T05:10:31;100655.38;;;24.58;30.23
59240;BME280;45010;53.640;10.578;2023-03-05T05:13:32;100650.06;;;24.58;30.23
59240;BME280;45010;53.640;10.578;2023-03-05T05:16:33;100649.25;;;24.58;30.26
59240;BME280;45010;53.640;10.578;2023-03-05T05:19:33;100633.84;;;24.48;30.25
59240;BME280;45010;53.640;10.578;2023-03-05T05:22:34;100635.72;;;24.60;30.14
59240;BME280;45010;53.640;10.578;2023-03-05T05:25:34;100634.06;;;24.58;30.28
59240;BME280;45010;53.640;10.578;2023-03-05T05:28:35;100628.72;;;24.58;30.16
59240;BME280;45010;53.640;10.578;2023-03-05T05:31:37;100634.06;;;24.58;30.24
59240;BME280;45010;53.640;10.578;2023-03-05T05:34:38;100630.38;;;24.60;30.17
59240;BME280;45010;53.640;10.578;2023-03-05T05:37:38;100628.72;;;24.58;30.30
59240;BME280;45010;53.640;10.578;2023-03-05T05:40:38;100639.41;;;24.58;30.33
59240;BME280;45010;53.640;10.578;2023-03-05T05:43:39;100626.44;;;24.50;30.29
59240;BME280;45010;53.640;10.578;2023-03-05T05:46:39;100642.88;;;24.59;30.31
59240;BME280;45010;53.640;10.578;2023-03-05T05:49:40;100641.03;;;24.60;30.40
59240;BME280;45010;53.640;10.578;2023-03-05T05:52:40;100635.72;;;24.60;30.35
59240;BME280;45010;53.640;10.578;2023-03-05T05:55:41;100575.09;;;24.19;30.28
59240;BME280;45010;53.640;10.578;2023-03-05T05:58:43;100627.59;;;24.54;30.25
59240;BME280;45010;53.640;10.578;2023-03-05T06:01:43;100627.72;;;24.60;30.29
59240;BME280;45010;53.640;10.578;2023-03-05T06:04:44;100631.16;;;24.60;30.23
59240;BME280;45010;53.640;10.578;2023-03-05T06:07:44;100632.00;;;24.61;29.77
59240;BME280;45010;53.640;10.578;2023-03-05T06:10:44;100634.06;;;24.58;30.26
59240;BME280;45010;53.640;10.578;2023-03-05T06:13:46;100624.94;;;24.54;30.26
59240;BME280;45010;53.640;10.578;2023-03-05T06:16:46;100632.00;;;24.61;30.30
59240;BME280;45010;53.640;10.578;2023-03-05T06:19:46;100627.44;;;24.61;30.22
59240;BME280;45010;53.640;10.578;2023-03-05T06:22:47;100616.94;;;24.54;30.25
59240;BME280;45010;53.640;10.578;2023-03-05T06:25:47;100633.59;;;24.62;30.39
59240;BME280;45010;53.640;10.578;2023-03-05T06:28:47;100622.94;;;24.62;30.33
59240;BME280;45010;53.640;10.578;2023-03-05T06:31:48;100621.31;;;24.61;30.32
59240;BME280;45010;53.640;10.578;2023-03-05T06:34:48;100624.56;;;24.63;30.31
59240;BME280;45010;53.640;10.578;2023-03-05T06:37:49;100629.88;;;24.63;30.15
59240;BME280;45010;53.640;10.578;2023-03-05T06:40:50;100609.88;;;24.48;30.37
59240;BME280;45010;53.640;10.578;2023-03-05T06:43:50;100635.22;;;24.63;30.35
59240;BME280;45010;53.640;10.578;2023-03-05T06:46:50;100629.88;;;24.63;30.21
59240;BME280;45010;53.640;10.578;2023-03-05T06:49:50;100624.56;;;24.63;30.14
59240;BME280;45010;53.640;10.578;2023-03-05T06:52:51;100626.19;;;24.64;30.21
59240;BME280;45010;53.640;10.578;2023-03-05T06:55:52;100618.06;;;24.58;30.24
59240;BME280;45010;53.640;10.578;2023-03-05T06:58:52;100615.88;;;24.55;30.31
59240;BME280;45010;53.640;10.578;2023-03-05T07:01:53;100627.78;;;24.65;30.24
59240;BME280;45010;53.640;10.578;2023-03-05T07:04:53;100622.47;;;24.65;30.42
59240;BME280;45010;53.640;10.578;2023-03-05T07:07:53;100615.50;;;24.64;30.05
59240;BME280;45010;53.640;10.578;2023-03-05T07:10:54;100612.63;;;24.65;30.47
59240;BME280;45010;53.640;10.578;2023-03-05T07:13:54;100616.09;;;24.66;30.27
59240;BME280;45010;53.640;10.578;2023-03-05T07:16:54;100613.44;;;24.66;30.28
59240;BME280;45010;53.640;10.578;2023-03-05T07:19:55;100613.44;;;24.66;30.35
59240;BME280;45010;53.640;10.578;2023-03-05T07:22:55;100603.44;;;24.61;30.28
59240;BME280;45010;53.640;10.578;2023-03-05T07:25:55;100600.09;;;24.66;30.24
59240;BME280;45010;53.640;10.578;2023-03-05T07:28:56;100598.22;;;24.66;30.31
59240;BME280;45010;53.640;10.578;2023-03-05T07:31:56;100612.38;;;24.67;30.26
59240;BME280;45010;53.640;10.578;2023-03-05T07:34:56;100604.38;;;24.67;30.58
59240;BME280;45010;53.640;10.578;2023-03-05T07:37:57;100605.19;;;24.67;30.41
59240;BME280;45010;53.640;10.578;2023-03-05T07:41:05;100610.28;;;24.69;30.54
59240;BME280;45010;53.640;10.578;2023-03-05T07:44:05;100607.63;;;24.69;30.71
59240;BME280;45010;53.640;10.578;2023-03-05T07:47:06;100604.38;;;24.67;30.59
59240;BME280;45010;53.640;10.578;2023-03-05T07:50:06;100588.50;;;24.60;30.67
59240;BME280;45010;53.640;10.578;2023-03-05T07:53:08;100594.19;;;24.64;30.71
59240;BME280;45010;53.640;10.578;2023-03-05T07:56:09;100603.91;;;24.70;30.73
59240;BME280;45010;53.640;10.578;2023-03-05T07:59:11;100589.44;;;24.66;30.72
59240;BME280;45010;53.640;10.578;2023-03-05T08:02:12;100601.25;;;24.70;30.64
59240;BME280;45010;53.640;10.578;2023-03-05T08:05:13;100594.06;;;24.70;30.71
59240;BME280;45010;53.640;10.578;2023-03-05T08:08:13;100596.50;;;24.72;30.62
59240;BME280;45010;53.640;10.578;2023-03-05T08:11:14;100591.16;;;24.72;30.59
59240;BME280;45010;53.640;10.578;2023-03-05T08:14:15;100574.47;;;24.65;30.75
59240;BME280;45010;53.640;10.578;2023-03-05T08:17:15;100576.09;;;24.66;30.74
59240;BME280;45010;53.640;10.578;2023-03-05T08:20:16;100563.78;;;24.65;30.58
59240;BME280;45010;53.640;10.578;2023-03-05T08:23:18;100567.63;;;24.69;30.69
59240;BME280;45010;53.640;10.578;2023-03-05T08:26:21;100570.28;;;24.69;30.59
59240;BME280;45010;53.640;10.578;2023-03-05T08:29:22;100574.00;;;24.68;30.80
59240;BME280;45010;53.640;10.578;2023-03-05T08:32:23;100573.06;;;24.74;30.65
59240;BME280;45010;53.640;10.578;2023-03-05T08:35:23;100572.25;;;24.74;30.81
59240;BME280;45010;53.640;10.578;2023-03-05T08:38:24;100563.34;;;24.68;30.78
59240;BME280;45010;53.640;10.578;2023-03-05T08:41:25;100559.16;;;24.72;30.76
59240;BME280;45010;53.640;10.578;2023-03-05T08:44:25;100567.72;;;24.74;30.70
59240;BME280;45010;53.640;10.578;2023-03-05T08:47:26;100567.63;;;24.69;30.81
59240;BME280;45010;53.640;10.578;2023-03-05T08:50:27;100556.97;;;24.69;30.56
59240;BME280;45010;53.640;10.578;2023-03-05T08:53:27;100570.41;;;24.74;30.82
59240;BME280;45010;53.640;10.578;2023-03-05T08:56:27;100566.91;;;24.74;31.11
59240;BME280;45010;53.640;10.578;2023-03-05T08:59:30;100555.91;;;24.70;31.34
59240;BME280;45010;53.640;10.578;2023-03-05T09:02:30;100562.72;;;24.78;31.36
59240;BME280;45010;53.640;10.578;2023-03-05T09:05:30;100547.56;;;24.78;31.16
59240;BME280;45010;53.640;10.578;2023-03-05T09:08:31;100547.09;;;24.81;31.30
59240;BME280;45010;53.640;10.578;2023-03-05T09:11:32;100554.03;;;24.82;31.27
59240;BME280;45010;53.640;10.578;2023-03-05T09:14:35;100545.00;;;24.83;31.05
59240;BME280;45010;53.640;10.578;2023-03-05T09:17:36;100522.84;;;24.71;31.42
59240;BME280;45010;53.640;10.578;2023-03-05T09:20:38;100543.25;;;24.89;31.44
59240;BME280;45010;53.640;10.578;2023-03-05T09:23:39;100545.69;;;24.91;31.33
59240;BME280;45010;53.640;10.578;2023-03-05T09:26:40;100546.25;;;24.93;31.36
59240;BME280;45010;53.640;10.578;2023-03-05T09:29:41;100539.84;;;24.94;31.17
59240;BME280;45010;53.640;10.578;2023-03-05T09:32:41;100555.88;;;24.94;30.94
59240;BME280;45010;53.640;10.578;2023-03-05T09:35:42;100538.81;;;24.95;31.00
59240;BME280;45010;53.640;10.578;2023-03-05T09:38:42;100532.44;;;24.96;30.86
59240;BME280;45010;53.640;10.578;2023-03-05T09:45:20;100531.13;;;24.98;30.71
59240;BME280;45010;53.640;10.578;2023-03-05T09:48:26;100534.06;;;24.97;30.86
59240;BME280;45010;53.640;10.578;2023-03-05T09:51:30;100511.09;;;24.96;30.66
59240;BME280;45010;53.640;10.578;2023-03-05T09:54:37;100523.50;;;25.02;30.57
59240;BME280;45010;53.640;10.578;2023-03-05T09:57:44;100515.47;;;25.02;30.70
59240;BME280;45010;53.640;10.578;2023-03-05T10:00:47;100525.19;;;25.08;30.55
59240;BME280;45010;53.640;10.578;2023-03-05T10:03:54;100509.66;;;25.05;30.48
59240;BME280;45010;53.640;10.578;2023-03-05T10:07:35;100513.16;;;25.06;30.46
59240;BME280;45010;53.640;10.578;2023-03-05T10:10:48;100526.81;;;25.09;30.35
59240;BME280;45010;53.640;10.578;2023-03-05T10:13:50;100524.69;;;25.11;30.51
59240;BME280;45010;53.640;10.578;2023-03-05T10:17:36;100520.97;;;25.12;30.55
59240;BME280;45010;53.640;10.578;2023-03-05T10:20:48;100510.81;;;25.09;30.54
59240;BME280;45010;53.640;10.578;2023-03-05T10:27:04;100516.78;;;25.17;30.22
59240;BME280;45010;53.640;10.578;2023-03-05T10:33:17;100511.91;;;25.14;30.28
59240;BME280;45010;53.640;10.578;2023-03-05T10:39:53;100508.28;;;25.20;30.44
59240;BME280;45010;53.640;10.578;2023-03-05T10:43:23;100508.88;;;25.22;30.43
59240;BME280;45010;53.640;10.578;2023-03-05T10:46:32;100500.78;;;25.17;30.27
59240;BME280;45010;53.640;10.578;2023-03-05T10:49:36;100502.72;;;25.21;30.26
59240;BME280;45010;53.640;10.578;2023-03-05T10:52:44;100475.53;;;25.07;30.13
59240;BME280;45010;53.640;10.578;2023-03-05T10:55:47;100493.91;;;25.21;29.82
59240;BME280;45010;53.640;10.578;2023-03-05T10:58:49;100488.59;;;25.21;29.61
59240;BME280;45010;53.640;10.578;2023-03-05T11:02:02;100474.09;;;25.17;29.80
59240;BME280;45010;53.640;10.578;2023-03-05T11:05:04;100460.34;;;25.08;29.68
59240;BME280;45010;53.640;10.578;2023-03-05T11:08:21;100469.91;;;25.21;30.12
59240;BME280;45010;53.640;10.578;2023-03-05T11:11:23;100472.31;;;25.22;30.57
59240;BME280;45010;53.640;10.578;2023-03-05T11:14:26;100466.66;;;25.19;30.38
59240;BME280;45010;53.640;10.578;2023-03-05T11:17:32;100414.38;;;24.89;30.70
59240;BME280;45010;53.640;10.578;2023-03-05T11:20:34;100463.59;;;25.27;30.62
59240;BME280;45010;53.640;10.578;2023-03-05T11:23:35;100466.25;;;25.27;30.76
59240;BME280;45010;53.640;10.578;2023-03-05T11:26:36;100468.66;;;25.29;30.82
59240;BME280;45010;53.640;10.578;2023-03-05T11:29:47;100458.81;;;25.29;30.54
59240;BME280;45010;53.640;10.578;2023-03-05T11:32:47;100461.25;;;25.31;30.73
59240;BME280;45010;53.640;10.578;2023-03-05T11:35:49;100455.00;;;25.25;30.41
59240;BME280;45010;53.640;10.578;2023-03-05T11:41:57;100452.09;;;25.27;30.09
59240;BME280;45010;53.640;10.578;2023-03-05T11:44:58;100442.41;;;25.20;30.16
59240;BME280;45010;53.640;10.578;2023-03-05T11:48:11;100443.22;;;25.21;30.02
59240;BME280;45010;53.640;10.578;2023-03-05T11:51:39;100451.78;;;25.23;30.00
59240;BME280;45010;53.640;10.578;2023-03-05T11:54:47;100466.97;;;25.22;30.05
59240;BME280;45010;53.640;10.578;2023-03-05T12:01:24;100455.97;;;25.19;30.11
59240;BME280;45010;53.640;10.578;2023-03-05T12:04:25;100446.34;;;25.18;30.06
59240;BME280;45010;53.640;10.578;2023-03-05T12:07:36;100444.19;;;25.15;30.04
59240;BME280;45010;53.640;10.578;2023-03-05T12:10:37;100444.50;;;25.18;30.23
59240;BME280;45010;53.640;10.578;2023-03-05T12:13:47;100429.19;;;25.14;29.94
59240;BME280;45010;53.640;10.578;2023-03-05T12:16:55;100410.38;;;25.03;30.06
59240;BME280;45010;53.640;10.578;2023-03-05T12:20:06;100419.34;;;25.14;30.14
59240;BME280;45010;53.640;10.578;2023-03-05T12:23:15;100407.28;;;25.11;30.03
59240;BME280;45010;53.640;10.578;2023-03-05T12:26:17;100411.09;;;25.16;30.17
59240;BME280;45010;53.640;10.578;2023-03-05T12:35:46;100397.75;;;25.16;30.14
59240;BME280;45010;53.640;10.578;2023-03-05T12:38:50;100393.47;;;25.15;30.28
59240;BME280;45010;53.640;10.578;2023-03-05T12:41:51;100395.09;;;25.16;30.20
59240;BME280;45010;53.640;10.578;2023-03-05T12:51:33;100381.13;;;25.08;30.18
59240;BME280;45010;53.640;10.578;2023-03-05T12:54:38;100375.44;;;25.05;30.25
59240;BME280;45010;53.640;10.578;2023-03-05T12:57:43;100373.34;;;25.07;30.07
59240;BME280;45010;53.640;10.578;2023-03-05T13:00:51;100388.06;;;25.09;30.20
59240;BME280;45010;53.640;10.578;2023-03-05T13:03:59;100390.66;;;25.04;30.04
59240;BME280;45010;53.640;10.578;2023-03-05T13:07:03;100403.47;;;25.07;30.13
59240;BME280;45010;53.640;10.578;2023-03-05T13:10:04;100397.34;;;25.07;30.29
59240;BME280;45010;53.640;10.578;2023-03-05T13:13:05;100381.59;;;25.05;30.11
59240;BME280;45010;53.640;10.578;2023-03-05T13:16:16;100381.59;;;25.05;30.16
59240;BME280;45010;53.640;10.578;2023-03-05T13:19:16;100383.69;;;25.03;30.15
59240;BME280;45010;53.640;10.578;2023-03-05T13:22:17;100378.34;;;25.03;30.19
59240;BME280;45010;53.640;10.578;2023-03-05T13:25:17;100370.34;;;25.03;30.10
59240;BME280;45010;53.640;10.578;2023-03-05T13:28:20;100364.44;;;25.01;30.20
59240;BME280;45010;53.640;10.578;2023-03-05T13:31:21;100360.97;;;25.01;30.13
59240;BME280;45010;53.640;10.578;2023-03-05T13:34:28;100346.81;;;25.00;30.05
59240;BME280;45010;53.640;10.578;2023-03-05T13:37:37;100341.47;;;25.00;30.07
59240;BME280;45010;53.640;10.578;2023-03-05T13:40:38;100330.81;;;25.00;30.08
59240;BME280;45010;53.640;10.578;2023-03-05T13:43:58;100317.38;;;24.95;30.09
59240;BME280;45010;53.640;10.578;2023-03-05T13:47:16;100315.31;;;24.97;30.67
59240;BME280;45010;53.640;10.578;2023-03-05T13:50:22;100296.22;;;24.88;30.73
59240;BME280;45010;53.640;10.578;2023-03-05T13:53:30;100319.66;;;25.03;30.81
59240;BME280;45010;53.640;10.578;2023-03-05T13:56:30;100326.59;;;25.04;30.21
59240;BME280;45010;53.640;10.578;2023-03-05T13:59:33;100317.53;;;25.05;30.72
59240;BME280;45010;53.640;10.578;2023-03-05T14:02:34;100318.09;;;25.07;30.68
59240;BME280;45010;53.640;10.578;2023-03-05T14:05:35;100308.41;;;25.01;30.86
59240;BME280;45010;53.640;10.578;2023-03-05T14:08:36;100311.75;;;25.08;30.67
59240;BME280;45010;53.640;10.578;2023-03-05T14:11:36;100312.53;;;25.09;30.69
59240;BME280;45010;53.640;10.578;2023-03-05T14:14:37;100304.28;;;25.10;30.77
59240;BME280;45010;53.640;10.578;2023-03-05T14:17:40;100307.78;;;25.11;30.75
59240;BME280;45010;53.640;10.578;2023-03-05T14:21:04;100300.56;;;25.11;30.84
59240;BME280;45010;53.640;10.578;2023-03-05T14:24:24;100300.56;;;25.11;30.70
59240;BME280;45010;53.640;10.578;2023-03-05T14:27:30;100300.56;;;25.11;30.68
59240;BME280;45010;53.640;10.578;2023-03-05T14:30:33;100293.63;;;25.10;30.68
59240;BME280;45010;53.640;10.578;2023-03-05T14:33:35;100288.28;;;25.10;30.82
59240;BME280;45010;53.640;10.578;2023-03-05T14:36:35;100272.94;;;25.01;31.09
59240;BME280;45010;53.640;10.578;2023-03-05T14:42:58;100279.22;;;25.11;30.50
59240;BME280;45010;53.640;10.578;2023-03-05T14:45:59;100285.38;;;25.12;30.46
59240;BME280;45010;53.640;10.578;2023-03-05T14:49:00;100277.59;;;25.10;30.49
59240;BME280;45010;53.640;10.578;2023-03-05T14:52:01;100280.28;;;25.10;30.40
59240;BME280;45010;53.640;10.578;2023-03-05T14:55:02;100277.59;;;25.10;30.51
59240;BME280;45010;53.640;10.578;2023-03-05T14:58:10;100256.75;;;25.07;30.36
59240;BME280;45010;53.640;10.578;2023-03-05T15:01:11;100260.28;;;25.13;30.41
59240;BME280;45010;53.640;10.578;2023-03-05T15:04:11;100243.47;;;25.12;30.45
59240;BME280;45010;53.640;10.578;2023-03-05T15:07:30;100246.72;;;25.15;30.61
59240;BME280;45010;53.640;10.578;2023-03-05T15:10:30;100243.41;;;25.07;30.66
59240;BME280;45010;53.640;10.578;2023-03-05T15:13:31;100236.53;;;25.11;30.46
59240;BME280;45010;53.640;10.578;2023-03-05T15:16:32;100233.94;;;25.17;30.46
59240;BME280;45010;53.640;10.578;2023-03-05T15:19:32;100241.69;;;25.18;30.41
59240;BME280;45010;53.640;10.578;2023-03-05T15:22:32;100234.47;;;25.19;30.48
59240;BME280;45010;53.640;10.578;2023-03-05T15:25:33;100238.75;;;25.20;30.47
59240;BME280;45010;53.640;10.578;2023-03-05T15:28:35;100226.97;;;25.16;30.34
59240;BME280;45010;53.640;10.578;2023-03-05T15:31:36;100231.31;;;25.22;30.90
59240;BME280;45010;53.640;10.578;2023-03-05T15:34:39;100224.38;;;25.21;30.60
59240;BME280;45010;53.640;10.578;2023-03-05T15:37:39;100228.06;;;25.20;30.51
59240;BME280;45010;53.640;10.578;2023-03-05T15:40:40;100231.31;;;25.22;30.50
59240;BME280;45010;53.640;10.578;2023-03-05T15:43:40;100228.66;;;25.22;30.39
59240;BME280;45010;53.640;10.578;2023-03-05T15:46:40;100221.72;;;25.21;30.65
59240;BME280;45010;53.640;10.578;2023-03-05T15:49:41;100230.50;;;25.21;30.57
59240;BME280;45010;53.640;10.578;2023-03-05T15:52:41;100211.59;;;25.23;30.49
59240;BME280;45010;53.640;10.578;2023-03-05T15:55:43;100211.03;;;25.21;30.66
59240;BME280;45010;53.640;10.578;2023-03-05T15:58:44;100211.91;;;25.27;30.30
59240;BME280;45010;53.640;10.578;2023-03-05T16:01:48;100190.09;;;25.12;30.43
59240;BME280;45010;53.640;10.578;2023-03-05T16:04:48;100200.97;;;25.28;30.75
59240;BME280;45010;53.640;10.578;2023-03-05T16:07:50;100196.13;;;25.25;30.44
59240;BME280;45010;53.640;10.578;2023-03-05T16:10:51;100203.66;;;25.28;30.46
59240;BME280;45010;53.640;10.578;2023-03-05T16:13:51;100192.16;;;25.28;30.66
59240;BME280;45010;53.640;10.578;2023-03-05T16:16:52;100192.47;;;25.31;30.70
59240;BME280;45010;53.640;10.578;2023-03-05T16:19:54;100190.84;;;25.30;30.59